Denver, Colorado
Traffic Map
Current Weather Conditions
Denver, Colorado
Clear
Clear
63°
Feels Like: 63°
Wind Chill: 63° Ceiling: Unl
Heat Index: 63° Visibility: 10mi
Dew Point: 45° Wind: 0mph
Humidity: 52% Direction: ° ()
Pressure: 30.15in Gusts: 0mph
Raw Report DataKBJC 240652Z AUTO 00000KT 10SM CLR 17/07 A3015 RMK AO2
Traffic Incident Summary
Active as of:
Severity:
Category:
InformationThere was an issue retrieving the traffic information for this location. Please try a different location or try again shortly.
Advertisements